QFA92 NWWW-YSSY
Flight info
| Callsign | QFA92 |
|---|---|
| Flight time | N/A |
| Altitude | 39000 |
| Route | POXAK3W POXAK B580 MISLY DCT RIKNI N774 MARLN |
| Aircraft | A21N/M-SDE2E3FGHIRWXY/LB1 |
Departure
| Time | 2026-04-12 08:12 |
|---|---|
| Airport | La Tontouta International Airport (NWWW) |
Arrival
| Time | N/A |
|---|---|
| Airport | Sydney Kingsford Smith International Airport (YSSY) |
| Time | Latitude | Longitude | Altitude | Speed | Heading |
|---|---|---|---|---|---|
| 2026-04-12 08:06 | -22.01448 | 166.21718 | 19 ft | 0 kts | 30° |
| 2026-04-12 08:09 | -22.01454 | 166.21714 | 29 ft | 3 kts | 30° |
| 2026-04-12 08:09 | -22.01469 | 166.21702 | 29 ft | 3 kts | 49° |
| 2026-04-12 08:10 | -22.01485 | 166.21694 | 29 ft | 3 kts | 346° |
| 2026-04-12 08:10 | -22.01499 | 166.21705 | 29 ft | 3 kts | 283° |
| 2026-04-12 08:10 | -22.01500 | 166.21718 | 29 ft | 0 kts | 257° |
| 2026-04-12 08:11 | -22.01501 | 166.21717 | 29 ft | 2 kts | 255° |
| 2026-04-12 08:11 | -22.01534 | 166.21688 | 29 ft | 18 kts | 202° |
| 2026-04-12 08:11 | -22.01627 | 166.21626 | 31 ft | 4 kts | 266° |
| 2026-04-12 08:11 | -22.01610 | 166.21584 | 30 ft | 24 kts | 300° |
| 2026-04-12 08:12 | -22.01343 | 166.21109 | 27 ft | 127 kts | 301° |
| 2026-04-12 08:12 | -22.00756 | 166.20051 | 417 ft | 185 kts | 301° |
| 2026-04-12 08:12 | -22.00016 | 166.18767 | 1291 ft | 217 kts | 302° |
| 2026-04-12 08:12 | -21.99294 | 166.17193 | 2079 ft | 256 kts | 284° |
| 2026-04-12 08:13 | -21.98985 | 166.15205 | 3047 ft | 279 kts | 270° |
| 2026-04-12 08:13 | -21.99486 | 166.13214 | 4659 ft | 277 kts | 239° |
| 2026-04-12 08:13 | -22.00692 | 166.11629 | 6427 ft | 270 kts | 227° |
| 2026-04-12 08:13 | -22.02038 | 166.10228 | 8033 ft | 269 kts | 225° |
| 2026-04-12 08:14 | -22.03439 | 166.08842 | 9410 ft | 277 kts | 225° |
| 2026-04-12 08:14 | -22.04878 | 166.07432 | 10548 ft | 291 kts | 225° |
| 2026-04-12 08:14 | -22.06464 | 166.05875 | 11135 ft | 325 kts | 225° |
| 2026-04-12 08:14 | -22.08224 | 166.04146 | 11576 ft | 359 kts | 224° |
| 2026-04-12 08:15 | -22.10151 | 166.02255 | 12100 ft | 385 kts | 224° |
| 2026-04-12 08:15 | -22.12176 | 166.00271 | 12955 ft | 398 kts | 224° |
| 2026-04-12 08:15 | -22.14225 | 165.98263 | 13905 ft | 406 kts | 224° |
| 2026-04-12 08:15 | -22.16335 | 165.96192 | 14801 ft | 413 kts | 224° |
| 2026-04-12 08:16 | -22.18475 | 165.94091 | 15766 ft | 418 kts | 224° |
| 2026-04-12 08:16 | -22.20640 | 165.91962 | 16744 ft | 423 kts | 224° |
| 2026-04-12 08:16 | -22.22829 | 165.89808 | 17625 ft | 428 kts | 224° |
| 2026-04-12 08:16 | -22.25055 | 165.87617 | 18400 ft | 433 kts | 224° |
| 2026-04-12 08:17 | -22.27300 | 165.85406 | 19030 ft | 437 kts | 224° |
| 2026-04-12 08:17 | -22.29530 | 165.83208 | 19616 ft | 441 kts | 224° |
| 2026-04-12 08:17 | -22.31804 | 165.80967 | 20179 ft | 444 kts | 224° |
| 2026-04-12 08:17 | -22.34094 | 165.78708 | 20726 ft | 447 kts | 224° |
| 2026-04-12 08:18 | -22.36398 | 165.76434 | 21267 ft | 450 kts | 224° |
| 2026-04-12 08:18 | -22.38730 | 165.74131 | 21797 ft | 453 kts | 224° |
| 2026-04-12 08:18 | -22.41066 | 165.71823 | 22310 ft | 456 kts | 224° |
| 2026-04-12 08:18 | -22.43419 | 165.69498 | 22812 ft | 459 kts | 224° |
| 2026-04-12 08:19 | -22.45748 | 165.67194 | 23275 ft | 462 kts | 224° |
| 2026-04-12 08:19 | -22.48128 | 165.64840 | 23697 ft | 464 kts | 224° |
| 2026-04-12 08:19 | -22.50520 | 165.62472 | 24059 ft | 466 kts | 224° |
| 2026-04-12 08:19 | -22.52919 | 165.60097 | 24393 ft | 468 kts | 224° |
| 2026-04-12 08:20 | -22.55325 | 165.57713 | 24742 ft | 469 kts | 224° |
| 2026-04-12 08:20 | -22.57706 | 165.55352 | 25066 ft | 471 kts | 224° |
| 2026-04-12 08:20 | -22.60127 | 165.52952 | 25397 ft | 473 kts | 225° |
| 2026-04-12 08:20 | -22.62568 | 165.50529 | 25733 ft | 475 kts | 225° |
| 2026-04-12 08:21 | -22.65009 | 165.48106 | 26129 ft | 475 kts | 225° |
| 2026-04-12 08:21 | -22.67442 | 165.45691 | 26656 ft | 472 kts | 225° |
| 2026-04-12 08:21 | -22.69823 | 165.43325 | 27217 ft | 469 kts | 225° |
| 2026-04-12 08:21 | -22.72231 | 165.40931 | 27822 ft | 467 kts | 225° |
| 2026-04-12 08:22 | -22.74624 | 165.38551 | 28451 ft | 464 kts | 225° |
| 2026-04-12 08:22 | -22.77001 | 165.36185 | 29099 ft | 461 kts | 225° |
| 2026-04-12 08:22 | -22.79324 | 165.33873 | 29689 ft | 458 kts | 225° |
| 2026-04-12 08:22 | -22.81666 | 165.31538 | 30183 ft | 456 kts | 225° |
| 2026-04-12 08:23 | -22.84000 | 165.29212 | 30617 ft | 455 kts | 225° |
| 2026-04-12 08:23 | -22.86329 | 165.26889 | 31069 ft | 452 kts | 225° |
| 2026-04-12 08:23 | -22.88643 | 165.24581 | 31559 ft | 449 kts | 225° |
| 2026-04-12 08:23 | -22.90940 | 165.22288 | 32045 ft | 446 kts | 226° |
| 2026-04-12 08:24 | -22.93217 | 165.20015 | 32538 ft | 444 kts | 226° |
| 2026-04-12 08:24 | -22.95484 | 165.17749 | 33016 ft | 441 kts | 226° |
| 2026-04-12 08:24 | -22.97701 | 165.15533 | 33476 ft | 439 kts | 226° |
| 2026-04-12 08:24 | -22.99947 | 165.13287 | 33941 ft | 436 kts | 226° |
| 2026-04-12 08:25 | -23.02185 | 165.11047 | 34314 ft | 434 kts | 226° |
| 2026-04-12 08:25 | -23.04408 | 165.08821 | 34689 ft | 433 kts | 226° |
| 2026-04-12 08:25 | -23.06590 | 165.06637 | 35081 ft | 430 kts | 226° |
| 2026-04-12 08:25 | -23.08786 | 165.04436 | 35436 ft | 428 kts | 226° |
| 2026-04-12 08:26 | -23.10981 | 165.02235 | 35773 ft | 427 kts | 226° |
| 2026-04-12 08:26 | -23.13162 | 165.00048 | 36094 ft | 426 kts | 226° |
| 2026-04-12 08:26 | -23.15336 | 164.97866 | 36422 ft | 425 kts | 226° |
| 2026-04-12 08:26 | -23.17510 | 164.95684 | 36742 ft | 424 kts | 226° |
| 2026-04-12 08:27 | -23.19677 | 164.93508 | 37066 ft | 423 kts | 226° |
| 2026-04-12 08:27 | -23.21811 | 164.91363 | 37390 ft | 421 kts | 226° |
| 2026-04-12 08:27 | -23.23962 | 164.89201 | 37729 ft | 420 kts | 226° |
| 2026-04-12 08:27 | -23.26104 | 164.87047 | 38053 ft | 419 kts | 226° |
| 2026-04-12 08:28 | -23.28243 | 164.84894 | 38394 ft | 418 kts | 226° |
| 2026-04-12 08:28 | -23.30376 | 164.82748 | 38707 ft | 416 kts | 226° |
| 2026-04-12 08:28 | -23.32503 | 164.80605 | 38939 ft | 417 kts | 227° |
| 2026-04-12 08:28 | -23.34640 | 164.78451 | 38967 ft | 422 kts | 227° |
| 2026-04-12 08:29 | -23.38984 | 164.74067 | 38969 ft | 428 kts | 227° |
| 2026-04-12 08:29 | -23.43324 | 164.69692 | 38972 ft | 422 kts | 227° |
| 2026-04-12 08:30 | -23.47507 | 164.65286 | 38972 ft | 421 kts | 229° |
| 2026-04-12 08:30 | -23.51657 | 164.60779 | 38974 ft | 421 kts | 229° |
| 2026-04-12 08:31 | -23.55812 | 164.56259 | 38972 ft | 421 kts | 229° |
| 2026-04-12 08:31 | -23.59951 | 164.51772 | 38973 ft | 421 kts | 229° |
| 2026-04-12 08:32 | -23.64114 | 164.47266 | 38971 ft | 420 kts | 230° |
| 2026-04-12 08:32 | -23.68265 | 164.42771 | 38971 ft | 420 kts | 230° |
| 2026-04-12 08:33 | -23.72399 | 164.38288 | 38974 ft | 420 kts | 230° |
| 2026-04-12 08:33 | -23.76548 | 164.33784 | 38973 ft | 420 kts | 230° |
| 2026-04-12 08:34 | -23.80673 | 164.29303 | 38974 ft | 421 kts | 230° |
| 2026-04-12 08:34 | -23.84830 | 164.24781 | 38974 ft | 421 kts | 230° |
| 2026-04-12 08:35 | -23.88988 | 164.20256 | 38971 ft | 421 kts | 230° |
| 2026-04-12 08:35 | -23.93115 | 164.15759 | 38971 ft | 421 kts | 230° |
| 2026-04-12 08:36 | -23.97274 | 164.11223 | 38971 ft | 421 kts | 230° |
| 2026-04-12 08:36 | -24.01420 | 164.06698 | 38971 ft | 421 kts | 230° |
| 2026-04-12 08:37 | -24.05546 | 164.02189 | 38974 ft | 421 kts | 230° |
| 2026-04-12 08:37 | -24.09691 | 163.97655 | 38973 ft | 421 kts | 230° |
| 2026-04-12 08:38 | -24.13818 | 163.93136 | 38974 ft | 422 kts | 230° |
| 2026-04-12 08:38 | -24.17973 | 163.88584 | 38971 ft | 421 kts | 230° |
| 2026-04-12 08:39 | -24.22113 | 163.84044 | 38974 ft | 420 kts | 230° |
| 2026-04-12 08:39 | -24.26219 | 163.79534 | 38972 ft | 420 kts | 230° |
| 2026-04-12 08:40 | -24.30352 | 163.74991 | 38973 ft | 420 kts | 230° |
| 2026-04-12 08:40 | -24.34480 | 163.70449 | 38972 ft | 420 kts | 230° |
| 2026-04-12 08:41 | -24.38617 | 163.65893 | 38971 ft | 420 kts | 231° |
| 2026-04-12 08:41 | -24.42717 | 163.61375 | 38981 ft | 419 kts | 231° |
| 2026-04-12 08:42 | -24.46831 | 163.56836 | 38968 ft | 418 kts | 231° |
| 2026-04-12 08:42 | -24.50937 | 163.52301 | 38971 ft | 418 kts | 231° |
| 2026-04-12 08:43 | -24.55016 | 163.47790 | 38970 ft | 418 kts | 231° |
| 2026-04-12 08:43 | -24.59115 | 163.43254 | 38971 ft | 418 kts | 231° |
| 2026-04-12 08:44 | -24.63215 | 163.38711 | 38975 ft | 418 kts | 231° |
| 2026-04-12 08:44 | -24.67298 | 163.34184 | 38974 ft | 418 kts | 231° |
| 2026-04-12 08:45 | -24.71397 | 163.29635 | 38977 ft | 418 kts | 232° |
| 2026-04-12 08:45 | -24.75478 | 163.25098 | 38973 ft | 420 kts | 232° |
| 2026-04-12 08:46 | -24.79598 | 163.20516 | 38968 ft | 420 kts | 232° |
| 2026-04-12 08:47 | -24.85743 | 163.13675 | 38971 ft | 420 kts | 232° |
| 2026-04-12 08:47 | -24.89855 | 163.09091 | 38972 ft | 420 kts | 232° |
| 2026-04-12 08:48 | -24.93968 | 163.04501 | 38971 ft | 420 kts | 232° |
| 2026-04-12 08:48 | -24.98073 | 162.99914 | 38969 ft | 419 kts | 232° |
| 2026-04-12 08:49 | -25.02151 | 162.95350 | 38969 ft | 418 kts | 232° |
| 2026-04-12 08:49 | -25.06227 | 162.90778 | 38966 ft | 417 kts | 232° |
| 2026-04-12 08:50 | -25.10299 | 162.86206 | 38973 ft | 416 kts | 232° |
| 2026-04-12 08:50 | -25.14334 | 162.81670 | 38962 ft | 417 kts | 232° |
| 2026-04-12 08:51 | -25.18411 | 162.77084 | 38972 ft | 417 kts | 232° |
| 2026-04-12 08:51 | -25.22451 | 162.72536 | 38988 ft | 417 kts | 232° |
| 2026-04-12 08:52 | -25.26518 | 162.67955 | 38969 ft | 415 kts | 233° |
| 2026-04-12 08:52 | -25.30528 | 162.63431 | 38967 ft | 414 kts | 233° |
| 2026-04-12 08:53 | -25.34567 | 162.58868 | 38970 ft | 414 kts | 234° |
| 2026-04-12 08:53 | -25.38602 | 162.54307 | 38969 ft | 414 kts | 234° |
| 2026-04-12 08:54 | -25.42613 | 162.49767 | 38964 ft | 414 kts | 234° |
| 2026-04-12 08:54 | -25.46640 | 162.45206 | 38963 ft | 414 kts | 234° |
| 2026-04-12 08:55 | -25.50665 | 162.40643 | 38967 ft | 414 kts | 234° |
| 2026-04-12 08:55 | -25.54662 | 162.36106 | 38965 ft | 414 kts | 234° |
| 2026-04-12 08:56 | -25.58682 | 162.31539 | 38963 ft | 414 kts | 234° |
| 2026-04-12 08:56 | -25.62702 | 162.26965 | 38968 ft | 414 kts | 234° |
| 2026-04-12 08:57 | -25.66716 | 162.22395 | 38965 ft | 414 kts | 234° |
| 2026-04-12 08:57 | -25.70062 | 162.18580 | 38964 ft | 415 kts | 234° |
| 2026-04-12 08:58 | -25.74768 | 162.13213 | 38994 ft | 415 kts | 234° |
| 2026-04-12 08:58 | -25.78769 | 162.08645 | 38960 ft | 415 kts | 234° |
| 2026-04-12 08:59 | -25.82786 | 162.04052 | 38964 ft | 414 kts | 234° |
| 2026-04-12 08:59 | -25.86804 | 161.99454 | 38954 ft | 414 kts | 234° |
| 2026-04-12 09:00 | -25.90798 | 161.94878 | 38967 ft | 414 kts | 234° |
| 2026-04-12 09:00 | -25.94814 | 161.90273 | 38955 ft | 414 kts | 234° |
| 2026-04-12 09:01 | -25.98812 | 161.85683 | 38952 ft | 414 kts | 234° |
| 2026-04-12 09:01 | -26.02824 | 161.81072 | 38957 ft | 414 kts | 235° |
| 2026-04-12 09:02 | -26.06156 | 161.77239 | 38952 ft | 414 kts | 235° |
| 2026-04-12 09:02 | -26.10161 | 161.72628 | 38952 ft | 414 kts | 235° |
| 2026-04-12 09:03 | -26.14168 | 161.68009 | 38954 ft | 414 kts | 235° |
| 2026-04-12 09:03 | -26.18152 | 161.63412 | 38952 ft | 414 kts | 235° |
| 2026-04-12 09:04 | -26.22800 | 161.58043 | 38953 ft | 414 kts | 235° |
| 2026-04-12 09:04 | -26.26129 | 161.54193 | 38977 ft | 414 kts | 236° |
| 2026-04-12 09:05 | -26.30132 | 161.49561 | 38954 ft | 413 kts | 236° |
| 2026-04-12 09:05 | -26.34094 | 161.44970 | 38954 ft | 413 kts | 236° |
| 2026-04-12 09:06 | -26.38081 | 161.40344 | 38952 ft | 412 kts | 236° |
| 2026-04-12 09:06 | -26.42069 | 161.35714 | 38949 ft | 412 kts | 236° |
| 2026-04-12 09:07 | -26.46020 | 161.31120 | 38949 ft | 412 kts | 236° |
| 2026-04-12 09:07 | -26.50000 | 161.26489 | 38949 ft | 412 kts | 236° |
| 2026-04-12 09:08 | -26.53973 | 161.21860 | 38948 ft | 412 kts | 236° |
| 2026-04-12 09:08 | -26.57923 | 161.17254 | 38943 ft | 413 kts | 236° |
| 2026-04-12 09:09 | -26.61903 | 161.12608 | 38946 ft | 413 kts | 236° |
| 2026-04-12 09:09 | -26.65881 | 161.07959 | 38946 ft | 413 kts | 236° |
| 2026-04-12 09:10 | -26.69850 | 161.03316 | 38952 ft | 413 kts | 236° |
| 2026-04-12 09:10 | -26.73795 | 160.98696 | 38946 ft | 413 kts | 236° |
| 2026-04-12 09:11 | -26.77759 | 160.94050 | 38946 ft | 411 kts | 237° |
| 2026-04-12 09:11 | -26.81708 | 160.89418 | 38944 ft | 409 kts | 237° |
| 2026-04-12 09:12 | -26.85640 | 160.84797 | 38939 ft | 409 kts | 237° |
| 2026-04-12 09:12 | -26.89554 | 160.80190 | 38938 ft | 409 kts | 237° |
| 2026-04-12 09:13 | -26.93465 | 160.75585 | 38941 ft | 409 kts | 237° |
| 2026-04-12 09:13 | -26.97391 | 160.70956 | 38938 ft | 409 kts | 237° |
| 2026-04-12 09:14 | -27.01314 | 160.66327 | 38956 ft | 409 kts | 237° |
| 2026-04-12 09:14 | -27.05210 | 160.61727 | 38938 ft | 408 kts | 238° |
| 2026-04-12 09:15 | -27.09117 | 160.57106 | 38933 ft | 408 kts | 238° |
| 2026-04-12 09:15 | -27.13030 | 160.52472 | 38932 ft | 408 kts | 238° |
| 2026-04-12 09:16 | -27.16914 | 160.47868 | 38933 ft | 408 kts | 238° |
| 2026-04-12 09:16 | -27.20826 | 160.43227 | 38933 ft | 408 kts | 238° |
| 2026-04-12 09:17 | -27.24712 | 160.38611 | 38963 ft | 408 kts | 238° |
| 2026-04-12 09:17 | -27.28606 | 160.33984 | 38924 ft | 407 kts | 238° |
| 2026-04-12 09:18 | -27.32498 | 160.29352 | 38929 ft | 406 kts | 238° |
| 2026-04-12 09:18 | -27.36353 | 160.24758 | 38920 ft | 406 kts | 238° |
| 2026-04-12 09:19 | -27.40237 | 160.20123 | 38919 ft | 406 kts | 238° |
| 2026-04-12 09:19 | -27.44112 | 160.15495 | 38919 ft | 406 kts | 238° |
| 2026-04-12 09:20 | -27.49907 | 160.08565 | 38936 ft | 406 kts | 238° |
| 2026-04-12 09:21 | -27.55706 | 160.01622 | 38915 ft | 404 kts | 238° |
| 2026-04-12 09:21 | -27.59539 | 159.97022 | 38913 ft | 404 kts | 238° |
| 2026-04-12 09:22 | -27.63391 | 159.92395 | 38912 ft | 404 kts | 238° |
| 2026-04-12 09:22 | -27.67222 | 159.87789 | 38908 ft | 404 kts | 238° |
| 2026-04-12 09:23 | -27.71032 | 159.83223 | 38914 ft | 384 kts | 238° |
| 2026-04-12 09:23 | -27.72830 | 159.81093 | 38948 ft | 366 kts | 239° |
| 2026-04-12 09:23 | -27.74544 | 159.79061 | 38918 ft | 348 kts | 240° |
| 2026-04-12 09:23 | -27.76150 | 159.77147 | 38916 ft | 331 kts | 240° |
| 2026-04-12 09:24 | -27.77695 | 159.75296 | 38907 ft | 318 kts | 241° |
| 2026-04-12 09:24 | -27.80674 | 159.71657 | 38908 ft | 313 kts | 242° |
| 2026-04-12 09:25 | -27.83629 | 159.68029 | 38902 ft | 314 kts | 242° |